Time;durP1;ratioP1;P1;durP2;ratioP2;P2;SDS_P1;SDS_P2;PMS_P1;PMS_P2;Temp;Humidity;BMP_temperature;BMP_pressure;BME280_temperature;BME280_humidity;BME280_pressure;Samples;Min_cycle;Max_cycle;Signal;HPM_P1;HPM_P2
2021/05/29 00:00:01;;;;;;;3.47;3.03;;;11.00;95.80;;;;;;4996193;28;20038;-84
2021/05/29 00:02:26;;;;;;;3.75;2.90;;;11.00;95.70;;;;;;4997041;28;20038;-84
2021/05/29 00:04:52;;;;;;;4.85;3.20;;;11.00;95.70;;;;;;5003595;28;20061;-85
2021/05/29 00:07:17;;;;;;;5.68;4.03;;;11.00;95.60;;;;;;5023372;28;20092;-85
2021/05/29 00:09:43;;;;;;;5.68;3.42;;;11.00;95.60;;;;;;5012340;28;20049;-84
2021/05/29 00:12:10;;;;;;;3.40;2.78;;;11.00;95.70;;;;;;4996159;28;20310;-84
2021/05/29 00:14:39;;;;;;;6.43;3.80;;;10.90;96.00;;;;;;4996701;28;20038;-84
2021/05/29 00:17:06;;;;;;;5.10;3.17;;;10.90;95.80;;;;;;4996233;28;20113;-84
2021/05/29 00:19:32;;;;;;;7.70;3.88;;;10.90;95.80;;;;;;4996858;28;20035;-84
2021/05/29 00:21:58;;;;;;;5.45;3.38;;;10.80;95.80;;;;;;4997004;28;20500;-84
2021/05/29 00:24:23;;;;;;;4.57;4.10;;;10.90;95.90;;;;;;4998933;28;20440;-84
2021/05/29 00:26:49;;;;;;;6.05;4.57;;;10.90;96.00;;;;;;4999618;28;20441;-84
2021/05/29 00:29:14;;;;;;;6.00;4.50;;;10.80;96.00;;;;;;5000917;28;20026;-84
2021/05/29 00:31:42;;;;;;;7.05;3.47;;;10.80;96.10;;;;;;5000055;28;20034;-85
2021/05/29 00:34:07;;;;;;;6.63;4.60;;;10.80;96.30;;;;;;5000303;28;20048;-84
2021/05/29 00:36:33;;;;;;;6.60;4.22;;;10.80;96.20;;;;;;5000660;28;20149;-84
2021/05/29 00:38:58;;;;;;;5.22;4.10;;;10.80;96.10;;;;;;5000904;28;20120;-85
2021/05/29 00:41:24;;;;;;;9.45;4.97;;;10.80;96.00;;;;;;5009384;28;20073;-84
2021/05/29 00:43:49;;;;;;;6.20;4.45;;;10.80;96.00;;;;;;5013135;28;20060;-84
2021/05/29 00:46:15;;;;;;;7.07;4.78;;;10.70;96.00;;;;;;5000422;28;20030;-84
2021/05/29 00:48:41;;;;;;;7.82;5.15;;;10.70;96.10;;;;;;4999677;28;20098;-83
2021/05/29 00:51:08;;;;;;;5.97;4.35;;;10.70;96.20;;;;;;4999909;28;20131;-85
2021/05/29 00:53:35;;;;;;;10.60;5.35;;;10.70;96.20;;;;;;5000300;28;20422;-84
2021/05/29 00:56:03;;;;;;;8.40;5.05;;;10.60;96.30;;;;;;5000468;28;20328;-84
2021/05/29 00:58:29;;;;;;;5.53;4.70;;;10.60;96.40;;;;;;5015518;28;20141;-84
2021/05/29 01:00:55;;;;;;;10.60;4.80;;;10.60;96.30;;;;;;4999677;28;20125;-84
2021/05/29 01:03:21;;;;;;;7.18;4.70;;;10.60;96.30;;;;;;5015545;28;20200;-84
2021/05/29 01:05:47;;;;;;;7.15;4.78;;;10.50;96.40;;;;;;5000046;28;20076;-84
2021/05/29 01:08:13;;;;;;;5.70;4.70;;;10.50;96.40;;;;;;5000205;28;20162;-84
2021/05/29 01:10:40;;;;;;;7.43;4.70;;;10.50;96.50;;;;;;4998857;28;20337;-84
2021/05/29 01:13:08;;;;;;;7.70;5.22;;;10.50;96.50;;;;;;4999480;28;20088;-84
2021/05/29 01:15:37;;;;;;;6.82;5.45;;;10.50;96.50;;;;;;5000596;28;20042;-84
2021/05/29 01:18:09;;;;;;;6.88;5.18;;;10.50;96.40;;;;;;5011754;28;20038;-83
2021/05/29 01:20:35;;;;;;;7.82;5.13;;;10.40;96.60;;;;;;5010969;28;20065;-83
2021/05/29 01:23:01;;;;;;;8.02;4.43;;;10.40;96.60;;;;;;5014517;28;20136;-84
2021/05/29 01:25:37;;;;;;;5.32;4.38;;;10.30;96.60;;;;;;5000612;28;20042;-84
2021/05/29 01:28:05;;;;;;;5.45;4.45;;;10.30;96.50;;;;;;5003203;28;20092;-84
2021/05/29 01:30:35;;;;;;;5.95;4.50;;;10.30;96.50;;;;;;5000161;28;20038;-86
2021/05/29 01:33:01;;;;;;;5.85;4.47;;;10.30;96.50;;;;;;5016025;28;20132;-84
2021/05/29 01:35:27;;;;;;;5.78;4.78;;;10.30;96.50;;;;;;5014511;28;20038;-85
2021/05/29 01:37:53;;;;;;;6.38;5.03;;;10.20;96.50;;;;;;4999716;28;20124;-84
2021/05/29 01:40:19;;;;;;;6.10;4.35;;;10.20;96.60;;;;;;4999996;28;20066;-83
2021/05/29 01:42:45;;;;;;;7.13;5.30;;;10.20;96.70;;;;;;5015041;28;20051;-83
2021/05/29 01:45:11;;;;;;;6.82;4.82;;;10.20;96.70;;;;;;4998824;28;20088;-83
2021/05/29 01:47:42;;;;;;;8.55;4.85;;;10.20;96.70;;;;;;5014741;28;20038;-84
2021/05/29 01:50:10;;;;;;;7.05;5.15;;;10.20;96.80;;;;;;4999385;28;20030;-84
2021/05/29 01:52:54;;;;;;;8.32;4.82;;;10.10;96.70;;;;;;5002860;28;20030;-83
2021/05/29 01:55:25;;;;;;;6.07;4.90;;;10.10;96.80;;;;;;5008120;28;20397;-84
2021/05/29 01:57:52;;;;;;;5.75;4.68;;;10.10;96.80;;;;;;4998471;28;20140;-84
2021/05/29 02:00:19;;;;;;;7.35;4.55;;;10.10;96.90;;;;;;5014978;28;20077;-84
2021/05/29 02:02:45;;;;;;;8.10;5.15;;;10.00;96.80;;;;;;4998313;28;20402;-84
2021/05/29 02:05:17;;;;;;;7.05;5.63;;;10.10;96.90;;;;;;4999083;28;20041;-84
2021/05/29 02:07:43;;;;;;;9.00;5.72;;;10.10;96.90;;;;;;5014781;28;20044;-84
2021/05/29 02:10:11;;;;;;;10.43;5.63;;;10.10;96.90;;;;;;4998847;28;20038;-84
2021/05/29 02:12:48;;;;;;;9.20;5.60;;;10.10;96.80;;;;;;4998773;28;20038;-85
2021/05/29 02:15:20;;;;;;;10.15;6.32;;;10.10;96.80;;;;;;4998801;28;20068;-84
2021/05/29 02:17:51;;;;;;;7.88;5.63;;;10.20;96.70;;;;;;4999178;28;20425;-85
2021/05/29 02:20:18;;;;;;;7.07;6.03;;;10.20;96.60;;;;;;4997815;28;20271;-85
2021/05/29 02:22:44;;;;;;;6.88;5.13;;;10.20;96.50;;;;;;4998502;28;20038;-85
2021/05/29 02:25:10;;;;;;;11.23;6.80;;;10.20;96.50;;;;;;5014340;28;20044;-85
2021/05/29 02:27:36;;;;;;;9.15;6.88;;;10.20;96.50;;;;;;4999194;28;20038;-86
2021/05/29 02:30:05;;;;;;;8.63;6.55;;;10.10;96.40;;;;;;5030824;28;20081;-85
2021/05/29 02:32:30;;;;;;;12.20;6.70;;;10.10;96.30;;;;;;5014391;28;20038;-85
2021/05/29 02:34:56;;;;;;;9.77;6.22;;;10.10;96.20;;;;;;5014404;28;20042;-85
2021/05/29 02:37:21;;;;;;;8.10;6.60;;;10.10;96.20;;;;;;5014206;28;20045;-85
2021/05/29 02:39:47;;;;;;;11.68;7.05;;;10.10;96.10;;;;;;4998069;28;20038;-86
2021/05/29 02:42:13;;;;;;;12.07;7.28;;;10.00;96.10;;;;;;4998020;28;20465;-86
2021/05/29 02:44:39;;;;;;;7.07;5.95;;;10.00;96.10;;;;;;5014035;28;20166;-85
2021/05/29 02:47:04;;;;;;;10.52;6.97;;;10.00;96.10;;;;;;4997089;28;20039;-85
2021/05/29 02:49:30;;;;;;;10.80;7.05;;;10.00;96.10;;;;;;4998329;28;20444;-84
2021/05/29 02:51:55;;;;;;;10.35;7.90;;;10.00;96.10;;;;;;5013351;28;20049;-85
2021/05/29 02:54:22;;;;;;;9.63;6.72;;;9.90;96.10;;;;;;4998172;28;20042;-85
2021/05/29 02:56:48;;;;;;;11.23;7.93;;;9.90;96.20;;;;;;4998004;28;20038;-84
2021/05/29 02:59:14;;;;;;;9.88;6.90;;;9.80;96.30;;;;;;4997606;28;20607;-85
2021/05/29 03:01:40;;;;;;;11.48;8.23;;;9.80;96.40;;;;;;4998325;28;20372;-85
2021/05/29 03:04:05;;;;;;;11.48;7.95;;;9.80;96.40;;;;;;4997845;28;20462;-85
2021/05/29 03:06:31;;;;;;;10.73;7.50;;;9.80;96.40;;;;;;5014149;28;20011;-86
2021/05/29 03:08:58;;;;;;;11.50;7.55;;;9.80;96.50;;;;;;5001857;28;20038;-85
2021/05/29 03:11:23;;;;;;;11.60;7.97;;;9.80;96.70;;;;;;5013230;28;20038;-85
2021/05/29 03:13:49;;;;;;;14.32;8.05;;;9.80;96.50;;;;;;4997661;28;20060;-85
2021/05/29 03:16:14;;;;;;;13.52;8.35;;;9.70;96.50;;;;;;4997745;28;20030;-84
2021/05/29 03:18:40;;;;;;;9.45;7.45;;;9.70;96.50;;;;;;5016668;28;20068;-85
2021/05/29 03:21:05;;;;;;;11.98;7.53;;;9.70;96.60;;;;;;5000674;28;20037;-85
2021/05/29 03:23:31;;;;;;;10.32;7.47;;;9.70;96.60;;;;;;4996386;28;20127;-85
2021/05/29 03:25:56;;;;;;;13.00;8.55;;;9.70;96.60;;;;;;4997115;28;20386;-85
2021/05/29 03:28:22;;;;;;;10.80;7.80;;;9.70;96.60;;;;;;5013315;28;20042;-84
2021/05/29 03:30:49;;;;;;;12.13;8.43;;;9.70;96.60;;;;;;5012734;28;20038;-85
2021/05/29 03:33:15;;;;;;;12.35;8.55;;;9.70;96.60;;;;;;5013072;28;20157;-85
2021/05/29 03:35:41;;;;;;;14.15;8.40;;;9.60;96.50;;;;;;4997530;28;20133;-85
2021/05/29 03:38:06;;;;;;;13.23;9.23;;;9.70;96.60;;;;;;5012911;28;20038;-85
2021/05/29 03:40:33;;;;;;;13.82;8.98;;;9.60;96.60;;;;;;5000349;28;20048;-84
2021/05/29 03:42:59;;;;;;;11.85;8.02;;;9.60;96.60;;;;;;5010720;28;20052;-84
2021/05/29 03:45:25;;;;;;;16.38;8.77;;;9.60;96.60;;;;;;4997352;28;20030;-85
2021/05/29 03:47:51;;;;;;;13.90;8.38;;;9.60;96.70;;;;;;4997071;28;20042;-85
2021/05/29 03:50:22;;;;;;;14.20;9.23;;;9.60;96.70;;;;;;5013142;28;20039;-85
2021/05/29 03:52:48;;;;;;;8.18;5.22;;;9.60;96.70;;;;;;4996897;28;20045;-85
2021/05/29 03:55:16;;;;;;;13.23;8.40;;;9.60;96.80;;;;;;4997608;28;20034;-85
2021/05/29 03:57:43;;;;;;;12.90;8.25;;;9.60;96.90;;;;;;4996215;28;20378;-85
2021/05/29 04:00:10;;;;;;;15.05;8.10;;;9.60;97.00;;;;;;4997591;28;20378;-85
2021/05/29 04:02:35;;;;;;;11.93;8.07;;;9.70;97.10;;;;;;5012560;28;20408;-85
2021/05/29 04:05:01;;;;;;;11.75;7.65;;;9.60;97.10;;;;;;4996110;28;20122;-85
2021/05/29 04:07:26;;;;;;;11.35;7.85;;;9.70;97.10;;;;;;5012815;28;20433;-85
2021/05/29 04:09:52;;;;;;;12.35;8.30;;;9.70;97.00;;;;;;4996958;28;20444;-85
2021/05/29 04:12:17;;;;;;;11.55;8.10;;;9.70;97.00;;;;;;5012699;28;20034;-84
2021/05/29 04:14:43;;;;;;;14.00;7.18;;;9.70;97.00;;;;;;4997232;28;20081;-84
2021/05/29 04:17:10;;;;;;;11.40;7.53;;;9.80;97.00;;;;;;5019992;28;20053;-85
2021/05/29 04:19:36;;;;;;;9.40;7.20;;;9.80;97.00;;;;;;5005006;28;20093;-84
2021/05/29 04:22:02;;;;;;;12.27;7.85;;;9.80;97.00;;;;;;4997905;28;20136;-84
2021/05/29 04:24:28;;;;;;;11.13;7.93;;;9.80;97.00;;;;;;5013009;28;20046;-85
2021/05/29 04:26:53;;;;;;;12.48;7.57;;;9.80;96.90;;;;;;4996419;28;20105;-84
2021/05/29 04:29:19;;;;;;;10.05;7.15;;;9.80;97.00;;;;;;4996997;28;20417;-85
2021/05/29 04:31:45;;;;;;;10.18;7.35;;;9.80;97.00;;;;;;4996538;28;20042;-85
2021/05/29 04:34:10;;;;;;;10.63;6.85;;;9.80;96.90;;;;;;5012347;28;20042;-85
2021/05/29 04:36:36;;;;;;;12.45;6.65;;;9.90;97.00;;;;;;4995816;28;20101;-85
2021/05/29 04:39:02;;;;;;;14.20;7.03;;;9.90;96.90;;;;;;4996854;28;20469;-85
2021/05/29 04:41:28;;;;;;;8.38;6.30;;;9.90;96.90;;;;;;4996446;28;20322;-85
2021/05/29 04:43:53;;;;;;;9.32;7.07;;;9.90;96.90;;;;;;4996762;28;20037;-85
2021/05/29 04:46:19;;;;;;;9.18;6.25;;;10.00;96.80;;;;;;5012747;28;20050;-84
2021/05/29 04:48:44;;;;;;;10.88;6.22;;;10.00;96.90;;;;;;4996547;28;20320;-85
2021/05/29 04:51:13;;;;;;;8.65;5.88;;;9.90;96.90;;;;;;4996897;28;20117;-86
2021/05/29 04:53:41;;;;;;;9.30;6.80;;;10.00;96.90;;;;;;5000561;28;20046;-85
2021/05/29 04:56:07;;;;;;;10.98;6.20;;;10.00;96.90;;;;;;5027164;28;20042;-86
2021/05/29 04:58:32;;;;;;;9.07;5.50;;;10.00;96.90;;;;;;5012749;28;20053;-85
2021/05/29 05:00:58;;;;;;;7.88;5.45;;;10.00;96.90;;;;;;4995836;28;20127;-85
2021/05/29 05:03:24;;;;;;;8.23;6.22;;;10.10;97.20;;;;;;4996638;28;20358;-85
2021/05/29 05:05:50;;;;;;;11.13;5.90;;;10.20;97.00;;;;;;4995358;28;20034;-84
2021/05/29 05:08:17;;;;;;;6.25;5.13;;;10.30;96.70;;;;;;5012454;28;20031;-85
2021/05/29 05:10:43;;;;;;;6.65;4.93;;;10.30;96.70;;;;;;5016890;28;20509;-86
2021/05/29 05:13:09;;;;;;;9.40;5.22;;;10.40;96.70;;;;;;5004234;28;20073;-85
2021/05/29 05:15:35;;;;;;;9.27;5.43;;;10.50;96.40;;;;;;4999824;28;20161;-85
2021/05/29 05:18:00;;;;;;;5.68;4.60;;;10.50;96.30;;;;;;5000173;28;20089;-85
2021/05/29 05:20:25;;;;;;;7.07;5.45;;;10.60;96.30;;;;;;4999919;28;20416;-85
2021/05/29 05:22:51;;;;;;;9.57;5.50;;;10.70;96.30;;;;;;5000076;28;20030;-85
2021/05/29 05:25:17;;;;;;;8.52;4.82;;;10.70;96.10;;;;;;4999759;28;20446;-82
2021/05/29 05:27:43;;;;;;;10.25;4.93;;;10.80;96.30;;;;;;5000176;28;20379;-84
2021/05/29 05:30:11;;;;;;;9.48;5.68;;;10.90;96.00;;;;;;5025845;28;20030;-84
2021/05/29 05:32:38;;;;;;;6.82;4.93;;;10.90;96.20;;;;;;5003611;28;20038;-84
2021/05/29 05:35:08;;;;;;;7.07;4.75;;;11.00;96.30;;;;;;4998944;28;20046;-83
2021/05/29 05:37:35;;;;;;;7.60;4.75;;;11.10;95.60;;;;;;5015264;28;20100;-83
2021/05/29 05:40:00;;;;;;;11.45;5.05;;;11.20;95.60;;;;;;5015216;28;20105;-83
2021/05/29 05:42:27;;;;;;;7.20;4.60;;;11.30;95.60;;;;;;5001269;28;20417;-82
2021/05/29 05:44:52;;;;;;;9.48;5.10;;;11.30;95.60;;;;;;5029063;28;20043;-83
2021/05/29 05:47:18;;;;;;;8.27;4.88;;;11.40;95.70;;;;;;5013538;28;20109;-84
2021/05/29 05:49:44;;;;;;;10.32;5.30;;;11.50;95.80;;;;;;5015488;28;20085;-84
2021/05/29 05:52:10;;;;;;;7.72;4.90;;;11.60;95.30;;;;;;4999682;28;20030;-83
2021/05/29 05:54:36;;;;;;;6.78;4.80;;;11.60;95.30;;;;;;4998795;28;20049;-84
2021/05/29 05:57:01;;;;;;;7.53;5.30;;;11.70;95.20;;;;;;4999673;28;20303;-83
2021/05/29 05:59:27;;;;;;;6.07;4.80;;;11.80;95.30;;;;;;5011716;28;20042;-84
2021/05/29 06:01:52;;;;;;;11.05;5.57;;;11.90;95.50;;;;;;5025321;28;20042;-83
2021/05/29 06:04:18;;;;;;;9.25;5.35;;;12.00;95.20;;;;;;4999098;28;20101;-84
2021/05/29 06:06:43;;;;;;;9.45;5.93;;;12.00;95.20;;;;;;4999515;28;20034;-84
2021/05/29 06:09:09;;;;;;;7.20;5.18;;;12.10;95.00;;;;;;5001503;28;20302;-84
2021/05/29 06:11:35;;;;;;;7.82;5.68;;;12.20;95.50;;;;;;5000933;28;20038;-83
2021/05/29 06:21:44;;;;;;;8.93;6.30;;;12.60;94.20;;;;;;4998628;28;20080;-84
2021/05/29 06:24:09;;;;;;;11.82;8.02;;;12.70;94.00;;;;;;5014619;28;20408;-84
2021/05/29 06:26:35;;;;;;;11.13;7.65;;;12.70;94.20;;;;;;4998568;28;20121;-84
2021/05/29 06:29:00;;;;;;;9.32;7.05;;;12.70;93.90;;;;;;5014795;28;20314;-84
2021/05/29 06:31:26;;;;;;;11.98;6.75;;;12.80;94.50;;;;;;4998971;28;20041;-84
2021/05/29 06:33:51;;;;;;;9.60;6.20;;;12.90;94.20;;;;;;5014886;28;20046;-85
2021/05/29 06:36:17;;;;;;;13.55;7.22;;;13.00;94.10;;;;;;5008107;28;20106;-85
2021/05/29 06:38:42;;;;;;;12.32;7.00;;;13.10;93.70;;;;;;5003093;28;20046;-85
2021/05/29 06:41:08;;;;;;;14.43;7.50;;;13.10;93.40;;;;;;5014287;28;20034;-85
2021/05/29 06:43:33;;;;;;;13.02;7.32;;;13.10;93.70;;;;;;4998571;28;20038;-84
2021/05/29 06:45:59;;;;;;;9.52;7.45;;;13.20;93.90;;;;;;5014403;28;20173;-84
2021/05/29 06:48:25;;;;;;;14.27;7.55;;;13.30;93.50;;;;;;5013852;28;20026;-84
2021/05/29 06:50:54;;;;;;;8.63;6.40;;;13.40;93.50;;;;;;4997379;28;20121;-84
2021/05/29 06:58:50;;;;;;;10.40;7.80;;;13.60;92.90;;;;;;4998222;28;20045;-84
2021/05/29 07:01:17;;;;;;;12.38;7.68;;;13.60;92.70;;;;;;5000069;28;20057;-84
2021/05/29 07:03:42;;;;;;;10.80;7.35;;;13.60;92.80;;;;;;5000691;28;20046;-85
2021/05/29 07:06:08;;;;;;;10.85;7.22;;;13.60;93.10;;;;;;5013760;28;20038;-84
2021/05/29 07:08:34;;;;;;;9.35;6.53;;;13.70;92.50;;;;;;5013633;28;20121;-83
2021/05/29 07:10:59;;;;;;;9.38;7.53;;;13.80;92.10;;;;;;5006609;28;20050;-85
2021/05/29 07:13:25;;;;;;;11.32;6.05;;;13.90;91.90;;;;;;5004867;28;20049;-84
2021/05/29 07:15:50;;;;;;;13.57;6.22;;;14.00;92.20;;;;;;4998613;28;20117;-84
2021/05/29 07:18:16;;;;;;;8.65;5.38;;;14.10;92.20;;;;;;4997352;28;20508;-85
2021/05/29 07:20:42;;;;;;;10.10;6.35;;;14.30;91.70;;;;;;4997547;28;20053;-84
2021/05/29 07:23:09;;;;;;;12.35;6.45;;;14.30;92.00;;;;;;4997671;28;20402;-84
2021/05/29 07:25:36;;;;;;;8.32;5.97;;;14.40;91.90;;;;;;4997524;28;20046;-85
2021/05/29 07:28:02;;;;;;;11.20;5.38;;;14.50;90.50;;;;;;4998047;28;20080;-84
2021/05/29 07:30:28;;;;;;;8.23;5.78;;;14.50;91.20;;;;;;5013555;28;20449;-84
2021/05/29 07:32:54;;;;;;;8.40;5.55;;;14.50;90.70;;;;;;5012715;28;20038;-84
2021/05/29 07:35:20;;;;;;;9.00;5.60;;;14.50;90.40;;;;;;5013630;28;20049;-84
2021/05/29 07:37:45;;;;;;;13.07;6.22;;;14.40;90.70;;;;;;5012818;28;20053;-85
2021/05/29 07:40:11;;;;;;;13.13;5.30;;;14.40;91.50;;;;;;4996924;28;20034;-85
2021/05/29 07:42:37;;;;;;;7.90;5.53;;;14.40;91.00;;;;;;4997326;28;20450;-85
2021/05/29 07:45:05;;;;;;;6.35;4.30;;;14.70;90.60;;;;;;5013532;28;20402;-84
2021/05/29 07:47:30;;;;;;;8.63;5.47;;;14.80;90.30;;;;;;5009286;28;20045;-85
2021/05/29 07:49:56;;;;;;;8.77;4.78;;;14.90;89.90;;;;;;5000966;28;20034;-84
2021/05/29 07:52:22;;;;;;;9.07;5.65;;;15.00;90.00;;;;;;4996874;28;20038;-84
2021/05/29 07:54:48;;;;;;;10.15;5.05;;;15.10;90.20;;;;;;4996448;28;20090;-84
2021/05/29 07:57:13;;;;;;;8.13;3.95;;;15.20;88.40;;;;;;5013388;28;20116;-85
2021/05/29 07:59:41;;;;;;;6.57;3.95;;;15.30;87.40;;;;;;5012524;28;20096;-84
2021/05/29 08:02:06;;;;;;;10.70;4.55;;;15.30;86.70;;;;;;4997749;28;20445;-84
2021/05/29 08:04:32;;;;;;;7.65;4.53;;;15.20;87.70;;;;;;4996216;28;20050;-85
2021/05/29 08:06:58;;;;;;;7.53;4.53;;;15.20;87.60;;;;;;4997112;28;20430;-84
2021/05/29 08:09:23;;;;;;;5.97;4.40;;;15.10;86.50;;;;;;5012768;28;20030;-84
2021/05/29 08:11:49;;;;;;;6.35;4.03;;;15.10;86.60;;;;;;4996303;28;20050;-84
2021/05/29 08:14:16;;;;;;;9.50;4.55;;;14.90;86.80;;;;;;4997070;28;20129;-85
2021/05/29 08:16:41;;;;;;;6.57;4.22;;;14.80;88.10;;;;;;4996681;28;20035;-85
2021/05/29 08:19:09;;;;;;;5.78;3.78;;;14.90;89.50;;;;;;5012672;28;20053;-85
2021/05/29 08:21:35;;;;;;;5.78;3.30;;;15.10;87.40;;;;;;5012410;28;20306;-84
2021/05/29 08:24:01;;;;;;;6.85;3.90;;;15.20;87.70;;;;;;5006285;28;20046;-85
2021/05/29 08:26:27;;;;;;;8.52;4.40;;;15.20;87.90;;;;;;5006307;28;20256;-85
2021/05/29 08:28:54;;;;;;;10.60;5.57;;;15.20;89.10;;;;;;4997782;28;20042;-84
2021/05/29 08:31:19;;;;;;;9.35;3.67;;;15.10;88.90;;;;;;4996125;28;20057;-86
2021/05/29 08:33:45;;;;;;;12.27;4.70;;;15.00;89.20;;;;;;4997098;28;20034;-84
2021/05/29 08:36:10;;;;;;;6.45;4.72;;;15.00;88.40;;;;;;4996388;28;20077;-85
2021/05/29 08:38:36;;;;;;;7.63;4.63;;;15.00;88.30;;;;;;4996692;28;20069;-84
2021/05/29 08:41:02;;;;;;;9.60;4.75;;;15.10;89.50;;;;;;5012519;28;20112;-85
2021/05/29 08:43:28;;;;;;;8.23;4.15;;;15.10;90.00;;;;;;4995621;28;20104;-85
2021/05/29 08:45:54;;;;;;;4.38;3.58;;;15.10;89.00;;;;;;5000124;28;20031;-83
2021/05/29 08:48:19;;;;;;;7.15;4.25;;;15.10;89.50;;;;;;5000417;28;20042;-85
2021/05/29 08:53:30;;;;;;;7.82;3.38;;;15.40;87.40;;;;;;5002205;28;20049;-84
2021/05/29 08:55:57;;;;;;;7.00;3.47;;;15.50;86.40;;;;;;5016158;28;20382;-85
2021/05/29 08:58:23;;;;;;;7.45;3.53;;;15.60;85.70;;;;;;5000709;28;20061;-84
2021/05/29 09:00:48;;;;;;;9.52;3.60;;;15.70;87.40;;;;;;5014025;28;20417;-87
2021/05/29 09:03:15;;;;;;;8.60;4.32;;;15.80;86.20;;;;;;5019864;28;20046;-84
2021/05/29 09:05:47;;;;;;;6.63;3.30;;;15.80;86.40;;;;;;5000683;28;20030;-85
2021/05/29 09:08:13;;;;;;;6.15;3.60;;;15.90;83.50;;;;;;5000593;28;20045;-84
2021/05/29 09:10:47;;;;;;;6.60;3.13;;;15.80;84.10;;;;;;5000229;28;20065;-84
2021/05/29 09:13:20;;;;;;;6.60;3.63;;;16.00;87.40;;;;;;5000740;28;20034;-86
2021/05/29 09:16:07;;;;;;;7.63;3.63;;;16.20;84.70;;;;;;4999756;28;20310;-84
2021/05/29 09:18:39;;;;;;;5.60;3.35;;;16.40;82.00;;;;;;5000143;28;20038;-84
2021/05/29 09:21:30;;;;;;;5.25;3.53;;;16.50;83.10;;;;;;4999210;28;20042;-84
2021/05/29 09:24:02;;;;;;;9.32;3.90;;;16.70;82.20;;;;;;5000027;28;20468;-85
2021/05/29 09:26:45;;;;;;;;;;;16.80;80.80;;;;;;5015496;28;20042;-84
2021/05/29 09:29:24;;;;;;;6.25;2.88;;;16.70;79.00;;;;;;4998930;28;19909;-83
2021/05/29 09:32:03;;;;;;;6.38;3.03;;;16.60;80.60;;;;;;4999620;28;20426;-83
2021/05/29 09:34:45;;;;;;;7.55;3.60;;;16.50;81.40;;;;;;5000035;28;20444;-83
2021/05/29 09:37:25;;;;;;;5.88;3.60;;;16.50;81.10;;;;;;5001589;28;20038;-85
2021/05/29 09:40:08;;;;;;;8.40;3.42;;;16.50;82.20;;;;;;5000811;28;20061;-85
2021/05/29 09:42:41;;;;;;;6.65;2.95;;;16.50;81.10;;;;;;5015097;28;20042;-84
2021/05/29 09:45:16;;;;;;;;;;;16.60;83.40;;;;;;5016010;28;20587;-84
2021/05/29 09:47:42;;;;;;;5.32;3.05;;;16.90;82.50;;;;;;4999891;28;19910;-84
2021/05/29 09:50:08;;;;;;;9.55;3.75;;;17.00;81.70;;;;;;5010354;28;20041;-84
2021/05/29 09:52:39;;;;;;;3.95;2.65;;;17.20;82.60;;;;;;4999637;28;20041;-86
2021/05/29 09:55:07;;;;;;;6.15;3.28;;;17.30;77.30;;;;;;4999482;28;20108;-84
2021/05/29 09:57:50;;;;;;;5.78;3.58;;;17.30;77.60;;;;;;5014097;28;20038;-85
2021/05/29 10:00:16;;;;;;;8.15;3.58;;;17.20;81.40;;;;;;4998974;28;20424;-84
2021/05/29 10:02:58;;;;;;;3.95;2.22;;;17.30;80.30;;;;;;4999130;28;20100;-84
2021/05/29 10:05:32;;;;;;;4.18;2.80;;;17.50;78.10;;;;;;4998213;28;20070;-84
2021/05/29 10:07:59;;;;;;;4.75;2.42;;;17.60;77.10;;;;;;4999383;28;20321;-84
2021/05/29 10:10:25;;;;;;;4.15;2.47;;;17.80;75.30;;;;;;5014926;28;20034;-85
2021/05/29 10:12:51;;;;;;;5.97;2.67;;;17.80;75.90;;;;;;5003588;28;20045;-84
2021/05/29 10:15:19;;;;;;;6.05;3.47;;;17.70;75.80;;;;;;5034090;28;20046;-84
2021/05/29 10:17:45;;;;;;;5.07;2.88;;;17.70;77.90;;;;;;5016763;28;20022;-85
2021/05/29 10:20:11;;;;;;;9.50;3.30;;;17.80;76.80;;;;;;5021522;28;20042;-85
2021/05/29 10:22:37;;;;;;;4.95;2.88;;;17.70;76.90;;;;;;5015088;28;20050;-85
2021/05/29 10:25:10;;;;;;;6.22;3.00;;;17.50;75.40;;;;;;5019300;28;20050;-86
2021/05/29 10:27:37;;;;;;;6.47;3.40;;;17.20;76.40;;;;;;5028280;28;20034;-87
2021/05/29 10:30:04;;;;;;;7.68;2.80;;;17.10;76.60;;;;;;5015903;28;20034;-85
2021/05/29 10:32:29;;;;;;;5.68;3.30;;;17.10;74.80;;;;;;4998622;28;20041;-85
2021/05/29 10:35:07;;;;;;;5.05;2.65;;;17.20;77.10;;;;;;4998738;28;20121;-84
2021/05/29 10:37:41;;;;;;;5.72;2.17;;;17.50;76.10;;;;;;5016792;28;20056;-85
2021/05/29 10:40:34;;;;;;;2.55;1.95;;;17.80;76.20;;;;;;5003171;28;20046;-85
2021/05/29 10:43:02;;;;;;;;;;;18.10;74.20;;;;;;5000264;28;20070;-85
2021/05/29 10:45:28;;;;;;;3.80;2.22;;;18.30;73.30;;;;;;4999424;28;19921;-86
2021/05/29 10:48:11;;;;;;;5.47;2.28;;;18.40;70.80;;;;;;5013910;28;20053;-85
2021/05/29 10:50:56;;;;;;;2.80;2.20;;;18.40;71.80;;;;;;5014495;28;20053;-87
2021/05/29 10:53:37;;;;;;;5.07;2.95;;;18.40;70.40;;;;;;4998199;28;20061;-85
2021/05/29 10:56:18;;;;;;;2.50;2.03;;;18.40;70.00;;;;;;5013979;28;20053;-86
2021/05/29 10:59:28;;;;;;;4.75;2.00;;;18.50;70.50;;;;;;4998274;28;20088;-86
2021/05/29 11:01:53;;;;;;;5.80;1.90;;;18.50;71.30;;;;;;5009654;28;20061;-86
2021/05/29 11:04:19;;;;;;;6.32;2.67;;;18.50;70.50;;;;;;4998665;28;20382;-84
2021/05/29 11:06:55;;;;;;;5.28;2.20;;;18.30;70.60;;;;;;4997947;28;20038;-85
2021/05/29 11:09:30;;;;;;;3.38;2.33;;;18.10;72.30;;;;;;4997116;28;20058;-87
2021/05/29 11:11:57;;;;;;;4.00;3.00;;;18.10;72.40;;;;;;4997571;28;20125;-86
2021/05/29 11:14:56;;;;;;;3.25;2.53;;;18.40;71.60;;;;;;4997419;28;20424;-86
2021/05/29 11:17:23;;;;;;;3.85;2.67;;;18.50;70.30;;;;;;4997520;28;20038;-87
2021/05/29 11:20:13;;;;;;;4.28;2.85;;;18.60;71.00;;;;;;4997221;28;20042;-86
2021/05/29 11:22:49;;;;;;;3.63;2.22;;;18.60;70.80;;;;;;4997914;28;20307;-87
2021/05/29 11:25:18;;;;;;;4.47;3.03;;;18.60;71.20;;;;;;4996931;28;20062;-87
2021/05/29 11:27:45;;;;;;;5.55;2.88;;;18.60;71.90;;;;;;5013190;28;20346;-87
2021/05/29 11:30:22;;;;;;;6.57;3.83;;;18.50;72.00;;;;;;5013713;28;20043;-86
2021/05/29 11:35:36;;;;;;;5.38;2.70;;;18.50;71.50;;;;;;5005028;28;20044;-86
2021/05/29 11:38:08;;;;;;;3.72;2.28;;;18.40;69.10;;;;;;5013885;28;20125;-86
2021/05/29 11:40:50;;;;;;;3.93;2.87;;;18.50;72.30;;;;;;4997685;28;20045;-86
2021/05/29 11:43:37;;;;;;;7.60;2.70;;;18.70;69.40;;;;;;4997451;28;20293;-87
2021/05/29 11:46:07;;;;;;;3.65;2.08;;;18.80;70.90;;;;;;4996474;28;20052;-85
2021/05/29 11:48:40;;;;;;;6.72;2.25;;;19.00;72.20;;;;;;5020409;28;20049;-87
2021/05/29 11:51:10;;;;;;;2.10;1.90;;;19.20;68.60;;;;;;5005040;28;20046;-86
2021/05/29 11:53:38;;;;;;;4.45;1.88;;;19.30;67.70;;;;;;4997569;28;20046;-86
2021/05/29 11:56:05;;;;;;;2.90;2.55;;;19.20;65.70;;;;;;4997244;28;20034;-87
2021/05/29 11:58:43;;;;;;;4.03;2.20;;;19.30;66.50;;;;;;4998037;28;20281;-87
2021/05/29 12:01:09;;;;;;;5.30;2.22;;;19.20;66.70;;;;;;5003973;28;20066;-86
2021/05/29 12:03:50;;;;;;;3.03;2.05;;;19.20;68.30;;;;;;4998915;28;20298;-87
2021/05/29 12:06:43;;;;;;;2.53;1.92;;;19.30;65.90;;;;;;5013452;28;20034;-86
2021/05/29 12:09:11;;;;;;;2.85;1.98;;;19.10;66.60;;;;;;4997387;28;20117;-87
2021/05/29 12:11:38;;;;;;;4.90;2.35;;;18.90;66.30;;;;;;5012462;28;20038;-86
2021/05/29 12:14:11;;;;;;;4.50;2.50;;;18.90;68.20;;;;;;5012621;28;20042;-86
2021/05/29 12:16:55;;;;;;;;;;;18.90;66.30;;;;;;4997534;28;20124;-88
2021/05/29 12:19:28;;;;;;;3.70;2.40;;;18.80;66.10;;;;;;4999618;28;19910;-86
2021/05/29 12:21:56;;;;;;;5.40;2.45;;;18.50;66.20;;;;;;5002036;28;20076;-87
2021/05/29 12:24:27;;;;;;;5.20;2.22;;;18.30;66.80;;;;;;5012924;28;20050;-87
2021/05/29 12:26:53;;;;;;;3.45;2.08;;;18.30;67.90;;;;;;5012485;28;20042;-86
2021/05/29 12:29:24;;;;;;;3.15;2.78;;;18.40;68.40;;;;;;5012841;28;20386;-87
2021/05/29 12:31:58;;;;;;;3.42;2.17;;;18.60;65.60;;;;;;4996769;28;20038;-87
2021/05/29 12:34:27;;;;;;;5.90;2.83;;;18.60;67.90;;;;;;5013835;28;20466;-87
2021/05/29 12:36:58;;;;;;;5.50;2.90;;;18.60;66.80;;;;;;5004474;28;20046;-88
2021/05/29 12:39:49;;;;;;;7.20;3.05;;;18.70;69.20;;;;;;4998625;28;20069;-86
2021/05/29 12:42:24;;;;;;;4.65;3.88;;;18.60;67.70;;;;;;4997033;28;20049;-86
2021/05/29 12:44:52;;;;;;;5.25;2.88;;;18.50;68.50;;;;;;4997426;28;20050;-87
2021/05/29 12:47:23;;;;;;;4.97;3.42;;;18.50;69.40;;;;;;4996299;28;20353;-87
2021/05/29 12:49:49;;;;;;;4.60;2.70;;;18.60;68.30;;;;;;4997983;28;20052;-86
2021/05/29 12:52:22;;;;;;;9.52;2.70;;;18.60;70.20;;;;;;4999942;28;20038;-86
2021/05/29 12:54:48;;;;;;;;;;;18.80;68.70;;;;;;4998841;28;20094;-86
2021/05/29 12:57:13;;;;;;;5.60;3.65;;;18.90;68.10;;;;;;4997252;28;20011;-87
2021/05/29 12:59:39;;;;;;;2.50;2.00;;;18.90;66.10;;;;;;4995655;28;20034;-87
2021/05/29 13:08:00;;;;;;;6.28;3.20;;;19.10;68.10;;;;;;4997754;28;20042;-87
2021/05/29 13:10:37;;;;;;;5.75;3.17;;;19.00;68.60;;;;;;5008229;28;20042;-87
2021/05/29 13:13:08;;;;;;;4.88;2.90;;;18.80;67.80;;;;;;5000705;28;20049;-87
2021/05/29 13:15:37;;;;;;;3.97;3.20;;;18.60;70.90;;;;;;4997143;28;20073;-87
2021/05/29 13:18:11;;;;;;;4.78;3.08;;;18.70;68.80;;;;;;5012528;28;20038;-87